South Padre Island, Texas
Current Conditions -  °F | °C
As of 6:15 AM on Friday 24 Oct 2014 (Local Time) from KSPL Reporting Station
Broken Clouds Broken Clouds  
Wind Chill: 75°   Ceiling: 3100
Heat Index: 75°   Visibility: 2mi
Dew Point: 66°   Wind: 9mph
Humidity: 73%   Direction: 30°NNE
Pressure: 30.06"   Gusts: NA
Location:  26.1°N, 97.17°W
Report Text: KSPL 241115Z AUTO 03008KT 2SM BKN031 24/19 A3006 RMK AO1
Loading
Personal Weather Stations






























Interactive Weather Map
Tropical Storm Tracking
New forecast layout! Learn more

10-Day Weather Forecast

Advertisements
Track Severe Weather on mobile